Time;durP1;ratioP1;P1;durP2;ratioP2;P2;SDS_P1;SDS_P2;PMS_P1;PMS_P2;Temp;Humidity;BMP_temperature;BMP_pressure;BME280_temperature;BME280_humidity;BME280_pressure;Samples;Min_cycle;Max_cycle;Signal;HPM_P1;HPM_P2
2021/12/14 00:01:34;;;;;;;17.93;16.30;;;;;;;;;;6187638;28;20238;-63
2021/12/14 00:04:56;;;;;;;17.80;15.90;;;;;;;;;;6182969;28;20229;-62
2021/12/14 00:08:19;;;;;;;19.17;17.17;;;;;;;;;;6189805;28;20692;-62
2021/12/14 00:11:54;;;;;;;16.03;14.47;;;;;;;;;;6179674;28;20254;-61
2021/12/14 00:15:16;;;;;;;17.17;14.93;;;;;;;;;;6174214;28;20324;-63
2021/12/14 00:18:38;;;;;;;18.53;16.63;;;;;;;;;;6170337;28;20322;-62
2021/12/14 00:22:05;;;;;;;17.50;15.80;;;;;;;;;;6188193;28;20241;-63
2021/12/14 00:25:32;;;;;;;15.73;14.23;;;;;;;;;;6191989;28;20237;-61
2021/12/14 00:28:52;;;;;;;18.97;16.47;;;;;;;;;;6196245;28;20643;-63
2021/12/14 00:32:18;;;;;;;18.13;16.17;;;;;;;;;;6185415;28;20222;-62
2021/12/14 00:35:41;;;;;;;16.93;15.23;;;;;;;;;;6187759;28;20230;-64
2021/12/14 00:39:05;;;;;;;18.07;16.40;;;;;;;;;;6176804;28;20225;-61
2021/12/14 00:42:29;;;;;;;18.07;14.83;;;;;;;;;;6186309;28;20513;-62
2021/12/14 00:45:50;;;;;;;17.10;15.40;;;;;;;;;;6174816;28;20313;-62
2021/12/14 00:49:13;;;;;;;18.23;16.33;;;;;;;;;;6190338;28;20233;-62
2021/12/14 00:52:35;;;;;;;18.53;16.80;;;;;;;;;;6188527;28;20234;-62
2021/12/14 00:55:58;;;;;;;17.80;15.83;;;;;;;;;;6173271;28;20214;-63
2021/12/14 00:59:22;;;;;;;17.10;15.30;;;;;;;;;;6172989;28;20253;-62
2021/12/14 01:02:44;;;;;;;17.20;15.50;;;;;;;;;;6168768;28;20238;-63
2021/12/14 01:06:09;;;;;;;19.03;17.20;;;;;;;;;;6183405;28;20242;-62
2021/12/14 01:09:34;;;;;;;17.13;15.33;;;;;;;;;;6174784;28;20234;-63
2021/12/14 01:13:00;;;;;;;15.87;14.47;;;;;;;;;;6180774;28;20509;-63
2021/12/14 01:16:34;;;;;;;18.23;16.60;;;;;;;;;;6186230;28;20233;-62
2021/12/14 01:19:58;;;;;;;17.93;16.23;;;;;;;;;;6175290;28;20233;-62
2021/12/14 01:23:29;;;;;;;17.50;15.67;;;;;;;;;;6166285;28;20234;-63
2021/12/14 01:26:50;;;;;;;17.00;15.27;;;;;;;;;;6174956;28;20626;-63
2021/12/14 01:30:19;;;;;;;17.03;15.17;;;;;;;;;;6190372;28;20743;-63
2021/12/14 01:33:44;;;;;;;18.63;16.87;;;;;;;;;;6173118;28;20549;-62
2021/12/14 01:37:08;;;;;;;18.13;16.40;;;;;;;;;;6182975;28;20234;-62
2021/12/14 01:44:13;;;;;;;19.70;16.70;;;;;;;;;;6161888;28;20229;-62
2021/12/14 01:47:41;;;;;;;20.00;17.90;;;;;;;;;;6173609;28;20234;-62
2021/12/14 01:51:22;;;;;;;19.60;17.67;;;;;;;;;;6188281;28;20237;-62
2021/12/14 01:54:56;;;;;;;17.30;15.67;;;;;;;;;;6188131;28;20234;-61
2021/12/14 01:58:18;;;;;;;18.57;16.83;;;;;;;;;;6186435;28;20226;-63
2021/12/14 02:01:53;;;;;;;21.63;18.10;;;;;;;;;;6189988;28;20262;-62
2021/12/14 02:05:22;;;;;;;18.10;16.23;;;;;;;;;;6173418;28;20237;-62
2021/12/14 02:08:45;;;;;;;19.60;17.63;;;;;;;;;;6173143;28;20321;-62
2021/12/14 02:12:11;;;;;;;18.77;16.87;;;;;;;;;;6172664;28;20230;-62
2021/12/14 02:15:39;;;;;;;18.87;17.10;;;;;;;;;;6171118;28;20306;-62
2021/12/14 02:19:10;;;;;;;19.73;17.60;;;;;;;;;;6183845;28;20221;-63
2021/12/14 02:22:32;;;;;;;18.93;17.07;;;;;;;;;;6189215;28;20241;-62
2021/12/14 02:25:55;;;;;;;20.07;17.87;;;;;;;;;;6182920;28;20300;-62
2021/12/14 02:29:23;;;;;;;19.27;17.57;;;;;;;;;;6192740;28;20323;-62
2021/12/14 02:32:44;;;;;;;19.23;17.23;;;;;;;;;;6188242;28;21005;-62
2021/12/14 02:36:07;;;;;;;19.43;17.53;;;;;;;;;;6193571;28;20317;-62
2021/12/14 02:39:47;;;;;;;21.60;19.40;;;;;;;;;;6190418;28;20238;-63
2021/12/14 02:43:10;;;;;;;19.83;17.97;;;;;;;;;;6193099;28;20552;-61
2021/12/14 02:46:33;;;;;;;19.83;17.73;;;;;;;;;;6192339;28;20233;-63
2021/12/14 02:49:54;;;;;;;20.90;18.53;;;;;;;;;;6193493;28;20256;-63
2021/12/14 02:53:15;;;;;;;18.93;17.23;;;;;;;;;;6177700;28;20305;-63
2021/12/14 02:56:39;;;;;;;18.80;16.97;;;;;;;;;;6176986;28;20229;-61
2021/12/14 03:00:00;;;;;;;18.57;16.67;;;;;;;;;;6188528;28;20459;-62
2021/12/14 03:03:21;;;;;;;18.90;17.00;;;;;;;;;;6193070;28;20234;-62
2021/12/14 03:06:48;;;;;;;17.63;15.83;;;;;;;;;;6183955;28;20337;-62
2021/12/14 03:10:21;;;;;;;20.43;18.43;;;;;;;;;;6169236;28;20585;-63
2021/12/14 03:13:46;;;;;;;19.90;17.80;;;;;;;;;;6163609;28;20250;-63
2021/12/14 03:17:07;;;;;;;20.20;18.10;;;;;;;;;;6154274;28;20309;-62
2021/12/14 03:20:31;;;;;;;18.17;16.27;;;;;;;;;;6186742;28;20951;-63
2021/12/14 03:23:54;;;;;;;17.37;15.63;;;;;;;;;;6188773;28;20753;-60
2021/12/14 03:27:15;;;;;;;19.47;17.50;;;;;;;;;;6178099;28;20235;-62
2021/12/14 03:30:42;;;;;;;18.33;16.40;;;;;;;;;;6158181;28;20754;-62
2021/12/14 03:34:09;;;;;;;18.80;17.00;;;;;;;;;;6173303;28;20231;-62
2021/12/14 03:37:29;;;;;;;21.77;16.70;;;;;;;;;;6191541;28;20265;-63
2021/12/14 03:40:55;;;;;;;18.73;17.07;;;;;;;;;;6175139;28;20230;-62
2021/12/14 03:44:19;;;;;;;18.57;16.77;;;;;;;;;;6183471;28;20222;-62
2021/12/14 03:47:46;;;;;;;20.20;18.23;;;;;;;;;;6173581;28;20229;-62
2021/12/14 03:51:07;;;;;;;18.37;16.50;;;;;;;;;;6173830;28;20702;-62
2021/12/14 03:54:28;;;;;;;18.80;17.03;;;;;;;;;;6192142;28;20238;-63
2021/12/14 03:57:50;;;;;;;21.67;18.37;;;;;;;;;;6189492;28;20237;-63
2021/12/14 04:01:15;;;;;;;18.43;16.63;;;;;;;;;;6177986;28;20711;-63
2021/12/14 04:04:51;;;;;;;19.00;17.30;;;;;;;;;;6180893;28;20316;-62
2021/12/14 04:08:14;;;;;;;18.57;16.63;;;;;;;;;;6189796;28;20222;-63
2021/12/14 04:11:35;;;;;;;17.77;16.13;;;;;;;;;;6161333;28;20535;-62
2021/12/14 04:14:57;;;;;;;19.13;16.23;;;;;;;;;;6193665;28;20245;-62
2021/12/14 04:18:19;;;;;;;19.03;16.80;;;;;;;;;;6176154;28;20230;-60
2021/12/14 04:21:44;;;;;;;18.27;16.37;;;;;;;;;;6176670;28;20241;-62
2021/12/14 04:25:10;;;;;;;17.90;16.23;;;;;;;;;;6184062;28;20233;-61
2021/12/14 04:28:38;;;;;;;16.97;15.37;;;;;;;;;;6173889;28;20229;-63
2021/12/14 04:31:59;;;;;;;19.57;17.67;;;;;;;;;;6189347;28;20257;-62
2021/12/14 04:35:20;;;;;;;20.13;17.97;;;;;;;;;;6190866;28;20222;-62
2021/12/14 04:38:50;;;;;;;19.47;17.67;;;;;;;;;;6192600;28;20234;-62
2021/12/14 04:53:43;;;;;;;16.70;15.10;;;;;;;;;;6187383;28;20882;-62
2021/12/14 04:57:20;;;;;;;17.80;16.03;;;;;;;;;;6189885;28;20234;-62
2021/12/14 05:00:44;;;;;;;17.17;15.17;;;;;;;;;;6173655;28;20244;-62
2021/12/14 05:04:18;;;;;;;18.07;16.17;;;;;;;;;;6177355;28;20229;-63
2021/12/14 05:07:58;;;;;;;17.90;16.07;;;;;;;;;;6173861;28;21010;-61
2021/12/14 05:11:22;;;;;;;15.67;12.97;;;;;;;;;;6191854;28;20578;-62
2021/12/14 05:14:47;;;;;;;14.83;13.47;;;;;;;;;;6174991;28;20234;-61
2021/12/14 05:18:11;;;;;;;14.83;13.43;;;;;;;;;;6174756;28;20230;-62
2021/12/14 05:21:35;;;;;;;14.13;12.63;;;;;;;;;;6172924;28;20234;-61
2021/12/14 05:25:00;;;;;;;15.90;14.23;;;;;;;;;;6182921;28;20226;-61
2021/12/14 05:28:24;;;;;;;15.40;13.80;;;;;;;;;;6176663;28;20229;-62
2021/12/14 05:31:48;;;;;;;16.30;14.00;;;;;;;;;;6171098;28;20279;-61
2021/12/14 05:35:13;;;;;;;13.90;12.60;;;;;;;;;;6180498;28;20233;-62
2021/12/14 05:38:48;;;;;;;15.37;13.87;;;;;;;;;;6171647;28;20226;-61
2021/12/14 05:46:20;;;;;;;14.23;12.63;;;;;;;;;;6189948;28;20237;-62
2021/12/14 05:49:55;;;;;;;13.17;11.80;;;;;;;;;;6189243;28;20233;-61
2021/12/14 05:53:19;;;;;;;12.90;11.80;;;;;;;;;;6171119;28;20229;-62
2021/12/14 05:56:40;;;;;;;15.33;13.43;;;;;;;;;;6177050;28;20499;-62
2021/12/14 06:00:01;;;;;;;21.37;12.50;;;;;;;;;;6170151;28;20512;-62
2021/12/14 06:03:30;;;;;;;16.33;14.07;;;;;;;;;;6183475;28;20241;-61
2021/12/14 06:06:54;;;;;;;13.70;12.23;;;;;;;;;;6174789;28;20230;-62
2021/12/14 06:10:17;;;;;;;14.80;13.30;;;;;;;;;;6175318;28;20226;-63
2021/12/14 06:13:41;;;;;;;13.70;12.47;;;;;;;;;;6171226;28;20280;-61
2021/12/14 06:17:05;;;;;;;14.27;11.50;;;;;;;;;;6183915;28;20230;-61
2021/12/14 06:20:29;;;;;;;13.90;12.60;;;;;;;;;;6184674;28;20237;-62
2021/12/14 06:24:01;;;;;;;14.50;13.07;;;;;;;;;;6178769;28;20258;-61
2021/12/14 06:27:29;;;;;;;14.33;12.83;;;;;;;;;;6173919;28;20279;-61
2021/12/14 06:30:52;;;;;;;13.33;12.13;;;;;;;;;;6186390;28;20620;-61
2021/12/14 06:34:16;;;;;;;15.23;13.80;;;;;;;;;;6182261;28;20221;-62
2021/12/14 06:38:07;;;;;;;15.37;13.87;;;;;;;;;;6198469;28;20232;-61
2021/12/14 06:41:28;;;;;;;17.80;16.10;;;;;;;;;;6177297;28;20246;-62
2021/12/14 06:45:04;;;;;;;16.30;14.60;;;;;;;;;;6176743;28;20320;-61
2021/12/14 06:48:30;;;;;;;19.03;17.13;;;;;;;;;;6169706;28;20233;-63
2021/12/14 06:51:55;;;;;;;22.67;18.17;;;;;;;;;;6180145;28;20504;-64
2021/12/14 06:55:24;;;;;;;18.27;16.47;;;;;;;;;;6180412;28;20226;-63
2021/12/14 06:59:08;;;;;;;18.20;16.30;;;;;;;;;;6176132;28;20241;-64
2021/12/14 07:02:47;;;;;;;16.63;15.00;;;;;;;;;;6170856;28;20650;-65
2021/12/14 07:06:31;;;;;;;18.50;16.73;;;;;;;;;;6179587;28;20226;-60
2021/12/14 07:09:54;;;;;;;19.23;17.33;;;;;;;;;;6180073;28;20229;-60
2021/12/14 07:13:19;;;;;;;19.47;17.67;;;;;;;;;;6186998;28;20238;-59
2021/12/14 07:16:46;;;;;;;19.93;16.43;;;;;;;;;;6181842;28;20249;-63
2021/12/14 07:20:18;;;;;;;19.40;17.47;;;;;;;;;;6181801;28;20600;-63
2021/12/14 07:23:40;;;;;;;17.23;15.53;;;;;;;;;;6192265;28;20238;-63
2021/12/14 07:27:23;;;;;;;20.17;18.10;;;;;;;;;;6190283;28;20555;-63
2021/12/14 07:30:47;;;;;;;20.50;18.30;;;;;;;;;;6174088;28;20603;-64
2021/12/14 07:34:08;;;;;;;19.40;17.30;;;;;;;;;;6173291;28;20623;-64
2021/12/14 07:37:33;;;;;;;20.00;18.10;;;;;;;;;;6177124;28;20279;-63
2021/12/14 07:40:56;;;;;;;20.47;18.37;;;;;;;;;;6177709;28;20230;-62
2021/12/14 07:44:18;;;;;;;21.37;19.27;;;;;;;;;;6175875;28;20231;-61
2021/12/14 07:47:51;;;;;;;22.50;20.20;;;;;;;;;;6174662;28;20337;-63
2021/12/14 07:51:12;;;;;;;20.27;18.20;;;;;;;;;;6178165;28;20233;-62
2021/12/14 07:54:37;;;;;;;22.07;19.97;;;;;;;;;;6175231;28;20969;-62
2021/12/14 07:57:58;;;;;;;21.13;18.93;;;;;;;;;;6179147;28;20242;-63
2021/12/14 08:01:18;;;;;;;26.58;23.88;;;;;;;;;;6185643;28;20728;-62
2021/12/14 08:04:42;;;;;;;23.97;21.33;;;;;;;;;;6159179;28;20230;-63
2021/12/14 08:08:09;;;;;;;24.70;22.00;;;;;;;;;;6165787;28;20242;-63
2021/12/14 08:11:46;;;;;;;23.67;21.20;;;;;;;;;;6166135;28;20230;-62
2021/12/14 08:15:16;;;;;;;23.53;21.23;;;;;;;;;;6192274;28;20250;-60
2021/12/14 08:18:39;;;;;;;22.43;20.13;;;;;;;;;;6165497;28;20242;-63
2021/12/14 08:22:06;;;;;;;23.93;20.17;;;;;;;;;;6166052;28;20230;-62
2021/12/14 08:25:28;;;;;;;22.63;19.97;;;;;;;;;;6168058;28;20263;-63
2021/12/14 08:28:51;;;;;;;25.87;23.13;;;;;;;;;;6155028;28;20692;-63
2021/12/14 08:32:15;;;;;;;22.23;19.70;;;;;;;;;;6180656;28;20233;-64
2021/12/14 08:35:42;;;;;;;37.07;22.77;;;;;;;;;;6163390;28;20238;-64
2021/12/14 08:39:12;;;;;;;25.23;22.23;;;;;;;;;;6156340;28;20230;-63
2021/12/14 08:42:42;;;;;;;25.90;22.53;;;;;;;;;;6159954;28;20234;-63
2021/12/14 08:46:07;;;;;;;24.20;21.73;;;;;;;;;;6159331;28;20732;-62
2021/12/14 08:49:29;;;;;;;25.20;22.53;;;;;;;;;;6180316;28;20242;-63
2021/12/14 08:52:51;;;;;;;24.67;22.27;;;;;;;;;;6158190;28;20747;-61
2021/12/14 08:56:15;;;;;;;25.63;22.93;;;;;;;;;;6182517;28;20238;-62
2021/12/14 08:59:38;;;;;;;26.77;24.07;;;;;;;;;;6190809;28;20268;-62
2021/12/14 09:03:01;;;;;;;26.80;23.90;;;;;;;;;;6181171;28;20573;-62
2021/12/14 09:06:24;;;;;;;27.10;24.23;;;;;;;;;;6181292;28;20844;-61
2021/12/14 09:09:45;;;;;;;25.63;22.77;;;;;;;;;;6184979;28;20241;-63
2021/12/14 09:13:10;;;;;;;28.60;25.13;;;;;;;;;;6185172;28;20245;-64
2021/12/14 09:16:33;;;;;;;28.30;23.80;;;;;;;;;;6178583;28;20684;-62
2021/12/14 09:19:58;;;;;;;28.67;24.53;;;;;;;;;;6188681;28;20636;-62
2021/12/14 09:23:22;;;;;;;29.50;25.97;;;;;;;;;;6182039;28;20238;-63
2021/12/14 09:26:47;;;;;;;30.23;25.40;;;;;;;;;;6170485;28;20237;-63
2021/12/14 09:30:12;;;;;;;26.83;24.00;;;;;;;;;;6185496;28;20241;-64
2021/12/14 09:33:35;;;;;;;29.97;26.53;;;;;;;;;;6173376;28;20648;-62
2021/12/14 09:36:58;;;;;;;33.33;27.03;;;;;;;;;;6174818;28;21376;-64
2021/12/14 09:40:21;;;;;;;32.07;28.17;;;;;;;;;;6191814;28;20898;-64
2021/12/14 09:43:45;;;;;;;31.73;25.97;;;;;;;;;;6184893;28;20584;-64
2021/12/14 09:47:12;;;;;;;30.90;26.27;;;;;;;;;;6188725;28;21862;-63
2021/12/14 09:50:35;;;;;;;31.67;25.87;;;;;;;;;;6189185;28;20329;-63
2021/12/14 09:53:58;;;;;;;27.57;24.50;;;;;;;;;;6187407;28;20230;-63
2021/12/14 09:57:24;;;;;;;31.90;26.37;;;;;;;;;;6183058;28;20233;-64
2021/12/14 10:00:47;;;;;;;27.33;24.20;;;;;;;;;;6183486;28;20322;-63
2021/12/14 10:04:15;;;;;;;30.43;25.93;;;;;;;;;;6179781;28;20230;-65
2021/12/14 10:07:35;;;;;;;29.87;25.17;;;;;;;;;;6174944;28;20241;-63
2021/12/14 10:11:03;;;;;;;31.23;25.80;;;;;;;;;;6183417;28;20225;-63
2021/12/14 10:14:27;;;;;;;31.73;26.10;;;;;;;;;;6185381;28;20245;-62
2021/12/14 10:17:50;;;;;;;31.90;26.17;;;;;;;;;;6185290;28;20223;-62
2021/12/14 10:21:16;;;;;;;31.37;26.87;;;;;;;;;;6188871;28;20226;-63
2021/12/14 10:24:38;;;;;;;33.53;28.40;;;;;;;;;;6163890;28;20238;-64
2021/12/14 10:27:59;;;;;;;32.50;28.20;;;;;;;;;;6186604;28;20471;-62
2021/12/14 10:31:26;;;;;;;32.43;27.20;;;;;;;;;;6187638;28;20229;-62
2021/12/14 10:34:50;;;;;;;30.47;27.03;;;;;;;;;;6185532;28;20674;-62
2021/12/14 10:38:23;;;;;;;33.80;29.27;;;;;;;;;;6188926;28;20240;-64
2021/12/14 10:45:26;;;;;;;32.87;27.63;;;;;;;;;;6181965;28;20563;-63
2021/12/14 10:48:48;;;;;;;32.40;27.63;;;;;;;;;;6191134;28;20242;-61
2021/12/14 10:52:14;;;;;;;36.07;28.50;;;;;;;;;;6190263;28;20229;-63
2021/12/14 10:55:39;;;;;;;31.40;28.00;;;;;;;;;;6189538;28;20233;-63
2021/12/14 10:59:02;;;;;;;31.87;28.50;;;;;;;;;;6184370;28;20324;-63
2021/12/14 11:02:26;;;;;;;33.60;27.30;;;;;;;;;;6186465;28;20599;-61
2021/12/14 11:05:52;;;;;;;32.07;27.60;;;;;;;;;;6184921;28;20221;-64
2021/12/14 11:09:42;;;;;;;33.33;29.17;;;;;;;;;;6179067;28;20241;-62
2021/12/14 11:13:10;;;;;;;35.83;29.80;;;;;;;;;;6192028;28;20889;-63
2021/12/14 11:18:08;;;;;;;31.77;26.37;;;;;;;;;;6185875;28;20244;-63
2021/12/14 11:20:19;;;;;;;34.20;29.30;;;;;;;;;;6184401;28;20324;-63
2021/12/14 11:23:43;;;;;;;29.97;26.17;;;;;;;;;;6190350;28;20229;-64
2021/12/14 11:27:12;;;;;;;32.57;27.50;;;;;;;;;;6184088;28;20229;-63
2021/12/14 11:30:37;;;;;;;35.93;28.40;;;;;;;;;;6180196;28;20253;-64
2021/12/14 11:34:00;;;;;;;33.93;28.00;;;;;;;;;;6181894;28;20237;-64
2021/12/14 11:37:24;;;;;;;33.10;26.83;;;;;;;;;;6188889;28;20321;-64
2021/12/14 11:40:45;;;;;;;28.30;24.77;;;;;;;;;;6182925;28;20312;-64
2021/12/14 11:44:12;;;;;;;33.60;25.57;;;;;;;;;;6179692;28;20237;-63
2021/12/14 11:47:46;;;;;;;32.63;27.10;;;;;;;;;;6188134;28;20229;-64
2021/12/14 11:51:09;;;;;;;29.63;25.67;;;;;;;;;;6168486;28;20225;-62
2021/12/14 11:54:30;;;;;;;31.43;24.73;;;;;;;;;;6163484;28;20230;-64
2021/12/14 11:58:04;;;;;;;30.07;26.10;;;;;;;;;;6173785;28;20238;-65
2021/12/14 12:01:27;;;;;;;30.10;25.37;;;;;;;;;;6169650;28;20230;-64
2021/12/14 12:04:49;;;;;;;31.47;25.33;;;;;;;;;;6162313;28;20242;-63
2021/12/14 12:11:50;;;;;;;26.83;23.23;;;;;;;;;;6155020;28;20238;-64
2021/12/14 12:15:16;;;;;;;28.57;23.17;;;;;;;;;;6181295;28;20230;-64
2021/12/14 12:18:36;;;;;;;30.10;24.10;;;;;;;;;;6188445;28;20253;-64
2021/12/14 12:22:07;;;;;;;26.50;22.83;;;;;;;;;;6174476;28;21280;-64
2021/12/14 12:25:30;;;;;;;28.40;23.13;;;;;;;;;;6184575;28;20261;-64
2021/12/14 12:28:55;;;;;;;26.43;23.40;;;;;;;;;;6176647;28;20652;-63
2021/12/14 12:32:28;;;;;;;26.63;21.73;;;;;;;;;;6185928;28;20545;-64
2021/12/14 12:35:53;;;;;;;22.63;20.17;;;;;;;;;;6181738;28;20324;-64
2021/12/14 12:39:18;;;;;;;22.30;18.90;;;;;;;;;;6187195;28;20238;-65
2021/12/14 12:42:39;;;;;;;22.27;19.87;;;;;;;;;;6188834;28;20769;-64
2021/12/14 12:46:05;;;;;;;20.47;17.77;;;;;;;;;;6183187;28;20221;-63
2021/12/14 12:49:27;;;;;;;20.27;17.20;;;;;;;;;;6191067;28;20316;-62
2021/12/14 12:52:47;;;;;;;20.20;17.77;;;;;;;;;;6178810;28;20230;-62
2021/12/14 12:56:14;;;;;;;20.23;18.13;;;;;;;;;;6190201;28;20563;-61
2021/12/14 12:59:42;;;;;;;17.53;15.40;;;;;;;;;;6193210;28;20237;-62
2021/12/14 13:03:08;;;;;;;18.73;16.73;;;;;;;;;;6183934;28;20344;-65
2021/12/14 13:06:29;;;;;;;18.63;16.03;;;;;;;;;;6172690;28;20272;-62
2021/12/14 13:10:10;;;;;;;16.80;15.03;;;;;;;;;;6184815;28;20250;-64
2021/12/14 13:13:34;;;;;;;17.27;15.07;;;;;;;;;;6185128;28;20233;-64
2021/12/14 13:16:57;;;;;;;16.07;14.50;;;;;;;;;;6176365;28;20892;-62
2021/12/14 13:20:18;;;;;;;19.97;17.47;;;;;;;;;;6188697;28;20752;-63
2021/12/14 13:23:41;;;;;;;17.13;15.43;;;;;;;;;;6180539;28;20238;-64
2021/12/14 13:27:05;;;;;;;15.37;13.73;;;;;;;;;;6182029;28;20248;-63
2021/12/14 13:30:29;;;;;;;17.03;15.33;;;;;;;;;;6190213;28;20336;-62
2021/12/14 13:33:49;;;;;;;24.57;18.20;;;;;;;;;;6185320;28;20316;-62
2021/12/14 13:37:12;;;;;;;15.77;14.07;;;;;;;;;;6197789;28;20511;-63
2021/12/14 13:40:37;;;;;;;14.70;13.17;;;;;;;;;;6176675;28;20312;-63
2021/12/14 13:43:58;;;;;;;15.20;13.57;;;;;;;;;;6180810;28;20230;-65
2021/12/14 13:47:22;;;;;;;15.33;13.40;;;;;;;;;;6181100;28;20229;-64
2021/12/14 13:50:45;;;;;;;16.23;13.30;;;;;;;;;;6183983;28;20238;-63
2021/12/14 13:54:06;;;;;;;15.57;13.77;;;;;;;;;;6193835;28;20249;-64
2021/12/14 13:57:27;;;;;;;14.17;12.73;;;;;;;;;;6188232;28;20229;-65
2021/12/14 14:00:51;;;;;;;18.03;14.13;;;;;;;;;;6195467;28;20312;-64
2021/12/14 14:04:16;;;;;;;14.67;12.90;;;;;;;;;;6188614;28;20622;-63
2021/12/14 14:07:37;;;;;;;15.97;13.93;;;;;;;;;;6180812;28;20241;-64
2021/12/14 14:10:58;;;;;;;15.40;13.77;;;;;;;;;;6171043;28;20226;-64
2021/12/14 14:14:25;;;;;;;15.17;13.27;;;;;;;;;;6191501;28;20599;-64
2021/12/14 14:17:52;;;;;;;14.30;12.77;;;;;;;;;;6190148;28;20242;-62
2021/12/14 14:21:16;;;;;;;14.97;13.43;;;;;;;;;;6192062;28;20233;-64
2021/12/14 14:24:39;;;;;;;13.53;12.17;;;;;;;;;;6181396;28;20687;-63
2021/12/14 14:28:02;;;;;;;13.87;12.03;;;;;;;;;;6184900;28;20245;-64
2021/12/14 14:31:44;;;;;;;13.90;12.50;;;;;;;;;;6187991;28;20521;-64
2021/12/14 14:35:06;;;;;;;16.00;14.30;;;;;;;;;;6186714;28;20233;-63
2021/12/14 14:38:35;;;;;;;14.00;12.60;;;;;;;;;;6187725;28;20230;-63
2021/12/14 14:41:58;;;;;;;12.87;11.57;;;;;;;;;;6191090;28;20225;-63
2021/12/14 14:45:22;;;;;;;13.03;11.73;;;;;;;;;;6186937;28;20234;-63
2021/12/14 14:48:53;;;;;;;13.53;11.90;;;;;;;;;;6185775;28;20229;-63
2021/12/14 14:52:17;;;;;;;13.47;12.07;;;;;;;;;;6187436;28;20257;-63
2021/12/14 14:55:45;;;;;;;14.60;12.97;;;;;;;;;;6178495;28;20655;-65
2021/12/14 14:59:15;;;;;;;10.80;9.70;;;;;;;;;;6181110;28;20887;-63
2021/12/14 15:02:48;;;;;;;12.83;11.27;;;;;;;;;;6171717;28;20234;-64
2021/12/14 15:06:22;;;;;;;17.50;12.50;;;;;;;;;;6166101;28;20265;-64
2021/12/14 15:09:43;;;;;;;10.77;9.77;;;;;;;;;;6172617;28;20241;-64
2021/12/14 15:13:43;;;;;;;23.67;21.30;;;;;;;;;;6185538;28;20231;-64
2021/12/14 15:17:13;;;;;;;12.73;11.47;;;;;;;;;;6194397;28;20229;-64
2021/12/14 15:20:35;;;;;;;11.47;10.37;;;;;;;;;;6174373;28;20237;-65
2021/12/14 15:23:57;;;;;;;12.10;10.80;;;;;;;;;;6178819;28;20231;-64
2021/12/14 15:27:27;;;;;;;12.60;11.43;;;;;;;;;;6192185;28;20325;-65
2021/12/14 15:30:54;;;;;;;11.73;10.57;;;;;;;;;;6189960;28;20229;-65
2021/12/14 15:34:15;;;;;;;14.63;13.13;;;;;;;;;;6187356;28;20406;-65
2021/12/14 15:37:39;;;;;;;14.60;13.07;;;;;;;;;;6196490;28;20467;-64
2021/12/14 15:41:14;;;;;;;14.20;12.80;;;;;;;;;;6191229;28;20509;-65
2021/12/14 15:44:40;;;;;;;14.23;12.83;;;;;;;;;;6182945;28;20600;-65
2021/12/14 15:48:06;;;;;;;14.97;13.47;;;;;;;;;;6172760;28;20507;-64
2021/12/14 15:51:29;;;;;;;15.27;13.77;;;;;;;;;;6187251;28;20238;-64
2021/12/14 15:54:54;;;;;;;16.57;14.83;;;;;;;;;;6190762;28;20539;-64
2021/12/14 15:58:16;;;;;;;18.00;15.70;;;;;;;;;;6189225;28;20893;-65
2021/12/14 16:01:40;;;;;;;19.23;17.33;;;;;;;;;;6191643;28;20253;-65
2021/12/14 16:05:06;;;;;;;19.93;17.83;;;;;;;;;;6199625;28;20595;-65
2021/12/14 16:08:30;;;;;;;19.97;17.83;;;;;;;;;;6177047;28;20242;-64
2021/12/14 16:11:57;;;;;;;22.23;18.93;;;;;;;;;;6176288;28;20233;-63
2021/12/14 16:15:21;;;;;;;21.97;19.77;;;;;;;;;;6192348;28;20232;-65
2021/12/14 16:18:42;;;;;;;24.90;22.40;;;;;;;;;;6191982;28;20245;-63
2021/12/14 16:22:14;;;;;;;23.40;21.00;;;;;;;;;;6190356;28;20226;-64
2021/12/14 16:25:37;;;;;;;24.53;22.03;;;;;;;;;;6192428;28;20233;-63
2021/12/14 16:29:03;;;;;;;23.13;20.73;;;;;;;;;;6190413;28;20234;-64
2021/12/14 16:32:24;;;;;;;24.83;22.30;;;;;;;;;;6188787;28;20237;-64
2021/12/14 16:35:49;;;;;;;27.03;23.63;;;;;;;;;;6198334;28;21782;-65
2021/12/14 16:39:15;;;;;;;27.53;22.93;;;;;;;;;;6187319;28;20229;-65
2021/12/14 16:42:38;;;;;;;28.50;23.53;;;;;;;;;;6175492;28;20568;-65
2021/12/14 16:45:59;;;;;;;29.77;24.33;;;;;;;;;;6168865;28;20298;-64
2021/12/14 16:49:23;;;;;;;29.33;23.43;;;;;;;;;;6171395;28;20313;-64
2021/12/14 16:52:45;;;;;;;29.73;25.10;;;;;;;;;;6167104;28;20234;-63
2021/12/14 16:56:08;;;;;;;29.27;25.50;;;;;;;;;;6169997;28;20318;-64
2021/12/14 16:59:33;;;;;;;33.53;25.23;;;;;;;;;;6167393;28;20317;-64
2021/12/14 17:02:55;;;;;;;34.70;27.37;;;;;;;;;;6172140;28;20245;-64
2021/12/14 17:06:17;;;;;;;34.80;27.43;;;;;;;;;;6170436;28;20242;-64
2021/12/14 17:09:38;;;;;;;36.23;26.93;;;;;;;;;;6173130;28;20250;-65
2021/12/14 17:13:07;;;;;;;40.37;29.90;;;;;;;;;;6179889;28;20627;-61
2021/12/14 17:16:30;;;;;;;36.40;26.37;;;;;;;;;;6188507;28;20225;-63
2021/12/14 17:19:55;;;;;;;39.07;28.47;;;;;;;;;;6187744;28;20230;-63
2021/12/14 17:23:18;;;;;;;37.97;28.63;;;;;;;;;;6186506;28;20324;-64
2021/12/14 17:26:40;;;;;;;38.83;27.33;;;;;;;;;;6187742;28;20233;-63
2021/12/14 17:30:07;;;;;;;33.80;26.13;;;;;;;;;;6188105;28;20237;-64
2021/12/14 17:33:29;;;;;;;38.30;26.77;;;;;;;;;;6187297;28;20671;-64
2021/12/14 17:36:53;;;;;;;35.30;26.60;;;;;;;;;;6188983;28;20233;-64
2021/12/14 17:40:17;;;;;;;31.47;25.70;;;;;;;;;;6180203;28;20222;-63
2021/12/14 17:43:40;;;;;;;34.03;26.43;;;;;;;;;;6185488;28;20229;-64
2021/12/14 17:47:07;;;;;;;33.33;28.33;;;;;;;;;;6168555;28;20585;-63
2021/12/14 17:50:30;;;;;;;35.23;28.57;;;;;;;;;;6173100;28;20326;-64
2021/12/14 17:53:51;;;;;;;35.97;24.90;;;;;;;;;;6172370;28;20239;-64
2021/12/14 17:57:17;;;;;;;39.43;28.77;;;;;;;;;;6170899;28;20305;-64
2021/12/14 18:00:40;;;;;;;35.73;27.37;;;;;;;;;;6174247;28;20242;-64
2021/12/14 18:04:03;;;;;;;33.43;26.57;;;;;;;;;;6166371;28;20509;-64
2021/12/14 18:07:24;;;;;;;30.50;24.20;;;;;;;;;;6171707;28;20277;-63
2021/12/14 18:10:49;;;;;;;31.53;25.03;;;;;;;;;;6171489;28;20596;-63
2021/12/14 18:14:15;;;;;;;33.20;27.83;;;;;;;;;;6183314;28;20237;-64
2021/12/14 18:17:48;;;;;;;27.87;23.00;;;;;;;;;;6185563;28;20234;-63
2021/12/14 18:21:12;;;;;;;34.10;26.50;;;;;;;;;;6187013;28;20254;-64
2021/12/14 18:24:34;;;;;;;34.10;25.87;;;;;;;;;;6183128;28;20611;-65
2021/12/14 18:27:55;;;;;;;33.00;25.90;;;;;;;;;;6184233;28;20226;-64
2021/12/14 18:31:17;;;;;;;35.87;27.20;;;;;;;;;;6188321;28;20316;-65
2021/12/14 18:34:38;;;;;;;29.57;24.30;;;;;;;;;;6184457;28;20226;-64
2021/12/14 18:38:11;;;;;;;33.37;27.90;;;;;;;;;;6186368;28;20516;-64
2021/12/14 18:41:32;;;;;;;31.23;23.73;;;;;;;;;;6190116;28;20244;-64
2021/12/14 18:44:55;;;;;;;30.00;23.80;;;;;;;;;;6181610;28;20226;-63
2021/12/14 18:51:56;;;;;;;31.03;24.87;;;;;;;;;;6186055;28;20577;-64
2021/12/14 18:55:26;;;;;;;31.60;24.93;;;;;;;;;;6182858;28;20270;-64
2021/12/14 18:58:50;;;;;;;36.37;27.60;;;;;;;;;;6184221;28;20711;-63
2021/12/14 19:02:14;;;;;;;34.03;26.37;;;;;;;;;;6183198;28;20265;-64
2021/12/14 19:05:35;;;;;;;30.67;25.97;;;;;;;;;;6181449;28;20308;-64
2021/12/14 19:09:02;;;;;;;32.90;26.10;;;;;;;;;;6168077;28;20271;-64
2021/12/14 19:12:28;;;;;;;31.70;26.27;;;;;;;;;;6180274;28;20252;-63
2021/12/14 19:15:50;;;;;;;30.77;24.57;;;;;;;;;;6196693;28;20592;-63
2021/12/14 19:19:18;;;;;;;32.90;24.53;;;;;;;;;;6179301;28;20753;-64
2021/12/14 19:22:47;;;;;;;31.33;25.23;;;;;;;;;;6187734;28;20655;-64
2021/12/14 19:26:11;;;;;;;30.90;25.93;;;;;;;;;;6193717;28;20245;-64
2021/12/14 19:29:36;;;;;;;32.00;25.17;;;;;;;;;;6192611;28;20512;-64
2021/12/14 19:32:58;;;;;;;35.03;25.57;;;;;;;;;;6187124;28;20222;-63
2021/12/14 19:36:19;;;;;;;32.90;27.70;;;;;;;;;;6185325;28;20233;-64
2021/12/14 19:39:40;;;;;;;36.13;26.70;;;;;;;;;;6167063;28;20237;-63
2021/12/14 19:43:04;;;;;;;35.73;29.07;;;;;;;;;;6182164;28;20253;-64
2021/12/14 19:46:31;;;;;;;36.70;30.57;;;;;;;;;;6174975;28;20604;-63
2021/12/14 19:49:54;;;;;;;34.60;27.17;;;;;;;;;;6178477;28;20225;-64
2021/12/14 19:53:21;;;;;;;36.30;28.87;;;;;;;;;;6171905;28;20577;-64
2021/12/14 19:56:43;;;;;;;33.97;27.63;;;;;;;;;;6173176;28;20615;-65
2021/12/14 20:00:10;;;;;;;36.23;29.93;;;;;;;;;;6173033;28;20234;-64
2021/12/14 20:03:42;;;;;;;37.80;29.73;;;;;;;;;;6176700;28;20225;-63
2021/12/14 20:07:06;;;;;;;32.13;26.80;;;;;;;;;;6171460;28;20568;-64
2021/12/14 20:10:27;;;;;;;34.03;25.40;;;;;;;;;;6174074;28;20751;-64
2021/12/14 20:13:51;;;;;;;35.97;27.17;;;;;;;;;;6189024;28;20599;-64
2021/12/14 20:17:11;;;;;;;33.53;27.13;;;;;;;;;;6189722;28;20500;-62
2021/12/14 20:20:37;;;;;;;35.03;26.93;;;;;;;;;;6183946;28;20222;-65
2021/12/14 20:24:01;;;;;;;34.20;26.83;;;;;;;;;;6193781;28;20257;-64